Skip to Main Content
SEARCH:
Location Air RH Dwp Precip Type Wind Speed Wind Gust Direction Pavement Temperature Date/Time
Hatem Bridge US 40 E/B 24 79 18 None 11 mph 16 mph NW 32 - 32 1/17/2018 9:21:00 AM
I-270 at I-370 21 65 11 None Calm 9 mph W 26 - 27 1/17/2018 9:20:00 AM
I-270 at MD-109 21 71 13 None 6 mph 13 mph W 26 - 28 1/17/2018 9:20:00 AM
I-495 at American Legion Bridge 22 61 11 None 6 mph 20 mph W 28 - 31 1/17/2018 9:20:00 AM
I-68 at Savage Mt 3 86 0 None 6 mph 16 mph NW 13 - 13 1/17/2018 9:20:00 AM
I-68 at Sideling Hill 11 75 5 None 9 mph 20 mph N 20 - 20 1/17/2018 9:20:00 AM
I-68 at US 219 2 90 0 None 13 mph 20 mph W 14 - 9 1/17/2018 9:20:00 AM
I-68 at WV Line 6 80 1 None 7 mph 12 mph W 11 - 15 1/17/2018 9:20:00 AM
I-695 at I-83 22 84 18 None 5 mph 12 mph N 28 - 29 1/17/2018 9:20:00 AM
I-695 on FSK Bridge 24 71 16 Snow 23 mph 32 mph E - 1/17/2018 9:23:00 AM
I-70 at Fred-Wash Co. 15 83 11 None 9 mph 24 mph NW 21 - 26 1/17/2018 9:20:00 AM
I-70 at I-695 22 72 14 None Calm 10 mph NW 27 - 33 1/17/2018 9:20:00 AM
I-70 at I-81 18 73 10 None 6 mph 12 mph NW - 1/17/2018 9:20:00 AM
I-70 at MD-27 19 80 14 None Calm 8 mph NW 25 - 26 1/17/2018 9:20:00 AM
I-70 at MD-32 21 63 10 None 4 mph 13 mph NW 27 - 29 1/17/2018 9:20:00 AM
I-83 at MD-137 21 88 18 None Calm 12 mph W 27 - 27 1/17/2018 9:20:00 AM
I-95 at I-695 NE 25 74 18 None 8 mph 13 mph N 28 - 29 1/17/2018 9:21:00 AM
I-95 at Patuxent River 23 69 15 None Calm 9 mph NE 28 - 30 1/17/2018 9:20:00 AM
I-95 at Tydings Bridge 24 90 21 None Calm 13 mph N - 1/17/2018 9:20:00 AM
I-95/495 at I-295 26 68 17 None 7 mph 12 mph N 28 - 28 1/17/2018 9:20:00 AM
I-97 at MD-100 24 80 19 None 9 mph 19 mph NW 30 - 31 1/17/2018 9:20:00 AM
I-97 at MD-32 24 73 16 None 13 mph 21 mph NW 29 - 29 1/17/2018 9:20:00 AM
MD 20 at MD 21 26 83 21 None 8 mph 14 mph N 30 - 30 1/17/2018 9:20:00 AM
MD 231 at Patuxent River 25 76 19 None 10 mph 17 mph NW 29 - 31 1/17/2018 9:20:00 AM
MD 260 at Cox Rd 26 81 21 None Calm 4 mph W 32 - 32 1/17/2018 9:20:00 AM
MD-135 at Salt Dome 3 93 2 None Calm 15 mph W 12 - 12 1/17/2018 9:20:00 AM
MD-140 at MD-97 18 66 9 None 7 mph 15 mph NW 24 - 24 1/17/2018 9:20:00 AM
MD-200 EB at Bonifant Rd 22 64 12 None 11 mph 18 mph NW 27 - 27 1/17/2018 9:21:00 AM
MD-200 WB at Muncaster Mill Rd 22 59 10 None 4 mph 13 mph SE 27 - 29 1/17/2018 9:21:00 AM
MD-213 at Sassafras River 26 97 26 Snow 6 mph 13 mph W 31 - 31 1/17/2018 9:20:00 AM
MD-24 at Rock St Park 21 83 17 None 6 mph 12 mph NE 28 - 28 1/17/2018 9:20:00 AM
MD-30 at PA Line 17 85 14 None 10 mph 16 mph NW 25 - 25 1/17/2018 9:20:00 AM
MD-33 at Knapps Narrows Drawbridge 26 81 21 None 23 mph 30 mph NW 32 - 32 1/17/2018 9:20:00 AM
MD-344 at MD-224 24 64 14 None 7 mph 17 mph N 30 - 30 1/17/2018 9:20:00 AM
MD-4 at Patuxent River 28 91 25 None - - No Data Available 32 - 34 1/17/2018 9:20:00 AM
MD-404 at Choptank River 29 89 26 Sleet 5 mph 13 mph NW 32 - 34 1/17/2018 9:20:00 AM
MD-43 at MD-150 25 73 18 None 7 mph 17 mph N 29 - 29 1/17/2018 9:20:00 AM
MD-51 at Oldtown Salt Dome 14 61 3 None Calm 7 mph NW 24 - 24 1/17/2018 9:20:00 AM
MD-64 at MD-418 16 69 8 None 8 mph 11 mph NW 23 - 25 1/17/2018 9:20:00 AM
US 301 at MD 305 27 88 24 Snow 14 mph 19 mph NW 32 - 32 1/17/2018 9:20:00 AM
US-1 at Baltimore / Harford Co. Line 23 75 17 None 5 mph 9 mph N 28 - 29 1/17/2018 9:20:00 AM
US-1 at Conowingo Dam 23 90 21 None 6 mph 14 mph NW 30 - 30 1/17/2018 9:20:00 AM
US-13 at US-113 33 83 28 None 10 mph 20 mph NW 38 - 39 1/17/2018 9:20:00 AM
US-13 at US-50 33 81 27 None 7 mph 13 mph N - 1/17/2018 9:20:00 AM
US-15 at MD-140 20 59 8 None 5 mph 11 mph NW 25 - 27 1/17/2018 9:20:00 AM
US-301 at MD-5 24 76 18 None 5 mph 14 mph W 30 - 32 1/17/2018 9:20:00 AM
US-301 at Potomac 27 70 19 None 16 mph 23 mph N 28 - 32 1/17/2018 9:20:00 AM
US-301 on HWN Bridge - - - None - - No Data Available 29 - 29 1/17/2018 9:22:00 AM
US-340 at MD-180 18 60 7 None 16 mph 22 mph NW 25 - 26 1/17/2018 9:20:00 AM
US-50 at Choptank 29 97 28 None 10 mph 19 mph NW 32 - 33 1/17/2018 9:20:00 AM
US-50 at I-95 24 78 18 None 8 mph 15 mph NW 28 - 30 1/17/2018 9:20:00 AM
US-50 at MD-2 26 85 22 None 6 mph 12 mph NW 30 - 30 1/17/2018 9:20:00 AM
US-50 at MD-331 31 87 28 None 8 mph 13 mph NW 34 - 40 1/17/2018 9:20:00 AM
US-50 at OC Drawbridge 35 98 35 None 12 mph 19 mph NW 41 - 41 1/17/2018 9:20:00 AM
US-50 at Table Rock Rd 2 91 0 None Calm 6 mph NW 18 - 18 1/17/2018 9:20:00 AM
US-50 Kent Narrow Bridge 26 100 26 None 14 mph 22 mph NW 30 - 31 1/17/2018 9:20:00 AM
WPL Pier 31 24 84 20 Sleet 18 mph 22 mph NW 30 - 30 1/17/2018 9:21:00 AM
Location Air RH Dwp Precip Type Wind Speed Wind Gust Direction Pavement Temperature Date/Time